Time,TemperatureF,DewpointF,PressureIn,WindDirection,WindDirectionDegrees,WindSpeedMPH,WindSpeedGustMPH,Humidity,HourlyPrecipIn,Conditions,Clouds,dailyrainin,SoftwareType,DateUTC
2013-04-05 00:00:00,46.1,21.2,29.89,South,179,0.0,0.0,37,0.00,,,0.00,Wunderground v.1.15,2013-04-05 04:00:00,
2013-04-05 00:01:00,46.1,20.6,29.89,South,179,0.0,0.0,36,0.00,,,0.00,Wunderground v.1.15,2013-04-05 04:01:00,
2013-04-05 00:02:00,46.1,21.2,29.89,South,179,0.0,0.0,37,0.00,,,0.00,Wunderground v.1.15,2013-04-05 04:02:00,
2013-04-05 00:05:00,46.1,23.1,29.89,South,178,0.0,0.0,40,0.00,,,0.00,Wunderground v.1.15,2013-04-05 04:05:00,
2013-04-05 00:11:00,45.8,25.1,29.89,South,178,0.0,0.0,44,0.00,,,0.00,Wunderground v.1.15,2013-04-05 04:11:00,
2013-04-05 00:16:00,45.7,23.3,29.89,South,178,0.0,0.0,41,0.00,,,0.00,Wunderground v.1.15,2013-04-05 04:16:00,
2013-04-05 00:22:00,45.7,30.4,29.89,South,178,0.0,0.0,55,0.00,,,0.00,Wunderground v.1.15,2013-04-05 04:22:00,
2013-04-05 00:27:00,46.7,27.0,29.89,WSW,243,1.0,4.0,46,0.00,,,0.00,Wunderground v.1.15,2013-04-05 04:27:00,
2013-04-05 00:34:00,48.0,30.2,29.90,SW,217,4.0,12.0,50,0.00,,,0.00,Wunderground v.1.15,2013-04-05 04:34:00,
2013-04-05 00:40:00,47.3,31.0,29.90,SSW,205,6.0,6.0,53,0.00,,,0.00,Wunderground v.1.15,2013-04-05 04:40:00,
2013-04-05 00:45:00,46.4,31.5,29.91,WSW,240,5.0,7.0,56,0.00,,,0.00,Wunderground v.1.15,2013-04-05 04:45:00,
2013-04-05 00:50:00,45.7,32.2,29.91,West,272,5.0,5.0,59,0.00,,,0.00,Wunderground v.1.15,2013-04-05 04:50:00,
2013-04-05 00:56:00,44.9,33.1,29.91,West,263,4.0,5.0,63,0.00,,,0.00,Wunderground v.1.15,2013-04-05 04:56:00,
2013-04-05 01:01:00,44.3,33.3,29.91,WSW,250,4.0,7.0,65,0.00,,,0.00,Wunderground v.1.15,2013-04-05 05:01:00,
2013-04-05 01:07:00,43.9,34.0,29.91,West,278,5.0,12.0,68,0.00,,,0.00,Wunderground v.1.15,2013-04-05 05:07:00,
2013-04-05 01:12:00,43.5,34.0,29.91,West,260,4.0,12.0,69,0.00,,,0.00,Wunderground v.1.15,2013-04-05 05:12:00,
2013-04-05 01:18:00,43.1,34.3,29.91,West,278,4.0,12.0,71,0.00,,,0.00,Wunderground v.1.15,2013-04-05 05:18:00,
2013-04-05 01:24:00,42.8,34.0,29.91,WSW,253,3.0,12.0,71,0.00,,,0.00,Wunderground v.1.15,2013-04-05 05:24:00,
2013-04-05 01:29:00,42.5,33.8,29.91,WSW,253,3.0,12.0,71,0.00,,,0.00,Wunderground v.1.15,2013-04-05 05:29:00,
2013-04-05 01:35:00,42.2,34.2,29.92,West,274,2.0,12.0,73,0.00,,,0.00,Wunderground v.1.15,2013-04-05 05:35:00,
2013-04-05 01:40:00,42.2,34.2,29.92,West,275,2.0,12.0,73,0.00,,,0.00,Wunderground v.1.15,2013-04-05 05:40:00,
2013-04-05 01:47:00,42.2,34.2,29.92,West,275,2.0,12.0,73,0.00,,,0.00,Wunderground v.1.15,2013-04-05 05:47:00,
2013-04-05 01:54:00,42.1,34.4,29.92,WNW,287,2.0,12.0,74,0.00,,,0.00,Wunderground v.1.15,2013-04-05 05:54:00,
2013-04-05 01:59:00,42.1,34.1,29.92,West,281,2.0,12.0,73,0.00,,,0.00,Wunderground v.1.15,2013-04-05 05:59:00,
2013-04-05 02:06:00,41.9,33.9,29.92,WNW,282,1.0,12.0,73,0.00,,,0.00,Wunderground v.1.15,2013-04-05 06:06:00,
2013-04-05 02:11:00,41.8,34.1,29.92,WNW,282,0.0,6.0,74,0.00,,,0.00,Wunderground v.1.15,2013-04-05 06:11:00,
2013-04-05 02:16:00,41.6,33.9,29.92,West,278,0.0,6.0,74,0.00,,,0.00,Wunderground v.1.15,2013-04-05 06:16:00,
2013-04-05 02:22:00,41.3,33.6,29.92,West,277,0.0,6.0,74,0.00,,,0.00,Wunderground v.1.15,2013-04-05 06:22:00,
2013-04-05 02:27:00,41.2,33.2,29.92,West,277,0.0,6.0,73,0.00,,,0.00,Wunderground v.1.15,2013-04-05 06:27:00,
2013-04-05 02:34:00,40.8,33.2,29.92,West,277,0.0,6.0,74,0.00,,,0.00,Wunderground v.1.15,2013-04-05 06:34:00,
2013-04-05 02:39:00,40.5,33.2,29.92,West,277,0.0,6.0,75,0.00,,,0.00,Wunderground v.1.15,2013-04-05 06:39:00,
2013-04-05 02:44:00,40.3,33.0,29.92,West,277,0.0,6.0,75,0.00,,,0.00,Wunderground v.1.15,2013-04-05 06:44:00,
2013-04-05 02:49:00,40.2,33.2,29.92,West,281,0.0,6.0,76,0.00,,,0.00,Wunderground v.1.15,2013-04-05 06:49:00,
2013-04-05 02:55:00,39.8,32.8,29.92,WNW,284,0.0,6.0,76,0.00,,,0.00,Wunderground v.1.15,2013-04-05 06:55:00,
2013-04-05 03:00:00,39.6,33.0,29.92,WNW,284,0.0,6.0,77,0.00,,,0.00,Wunderground v.1.15,2013-04-05 07:00:00,
2013-04-05 03:05:00,39.3,33.0,29.92,WNW,284,0.0,6.0,78,0.00,,,0.00,Wunderground v.1.15,2013-04-05 07:05:00,
2013-04-05 03:11:00,39.1,33.5,29.92,WNW,285,0.0,0.0,80,0.00,,,0.00,Wunderground v.1.15,2013-04-05 07:11:00,
2013-04-05 03:17:00,38.8,33.5,29.93,WNW,285,0.0,0.0,81,0.00,,,0.00,Wunderground v.1.15,2013-04-05 07:17:00,
2013-04-05 03:24:00,38.5,33.8,29.93,WNW,285,0.0,0.0,83,0.00,,,0.00,Wunderground v.1.15,2013-04-05 07:24:00,
2013-04-05 03:29:00,38.2,33.5,29.93,WNW,285,0.0,0.0,83,0.00,,,0.00,Wunderground v.1.15,2013-04-05 07:29:00,
2013-04-05 03:35:00,38.2,34.4,29.93,WNW,285,0.0,0.0,86,0.00,,,0.00,Wunderground v.1.15,2013-04-05 07:35:00,
2013-04-05 03:42:00,38.2,35.0,29.93,WNW,285,0.0,0.0,88,0.00,,,0.00,Wunderground v.1.15,2013-04-05 07:42:00,
2013-04-05 03:47:00,38.2,35.0,29.93,WNW,285,0.0,0.0,88,0.00,,,0.00,Wunderground v.1.15,2013-04-05 07:47:00,
2013-04-05 03:54:00,38.0,34.8,29.93,WNW,285,0.0,0.0,88,0.00,,,0.00,Wunderground v.1.15,2013-04-05 07:54:00,
2013-04-05 04:00:00,38.0,35.3,29.93,WNW,285,0.0,0.0,90,0.00,,,0.00,Wunderground v.1.15,2013-04-05 08:00:00,
2013-04-05 04:05:00,37.9,34.9,29.93,WNW,285,0.0,2.0,89,0.00,,,0.00,Wunderground v.1.15,2013-04-05 08:05:00,
2013-04-05 04:12:00,37.6,34.7,29.93,WNW,287,0.0,2.0,89,0.00,,,0.00,Wunderground v.1.15,2013-04-05 08:12:00,
2013-04-05 04:17:00,36.8,35.2,29.94,WNW,287,0.0,2.0,94,0.00,,,0.00,Wunderground v.1.15,2013-04-05 08:17:00,
2013-04-05 04:22:00,36.5,35.7,29.94,WNW,287,0.0,2.0,97,0.00,,,0.00,Wunderground v.1.15,2013-04-05 08:22:00,
2013-04-05 04:27:00,36.5,36.5,29.94,WNW,287,0.0,2.0,100,0.00,,,0.00,Wunderground v.1.15,2013-04-05 08:27:00,
2013-04-05 04:34:00,36.6,36.6,29.95,WNW,287,0.0,2.0,100,0.00,,,0.00,Wunderground v.1.15,2013-04-05 08:34:00,
2013-04-05 04:39:00,36.5,36.5,29.95,WNW,287,1.0,2.0,100,0.00,,,0.00,Wunderground v.1.15,2013-04-05 08:39:00,
2013-04-05 04:45:00,36.5,36.5,29.95,WNW,287,0.0,2.0,100,0.00,,,0.00,Wunderground v.1.15,2013-04-05 08:45:00,
2013-04-05 04:50:00,36.3,36.3,29.95,WNW,287,0.0,2.0,100,0.00,,,0.00,Wunderground v.1.15,2013-04-05 08:50:00,
2013-04-05 04:56:00,36.2,36.2,29.95,WNW,287,0.0,2.0,100,0.00,,,0.00,Wunderground v.1.15,2013-04-05 08:56:00,
2013-04-05 05:01:00,36.0,36.0,29.96,WNW,287,0.0,2.0,100,0.00,,,0.00,Wunderground v.1.15,2013-04-05 09:01:00,
2013-04-05 05:07:00,36.0,36.0,29.96,WNW,289,1.0,3.0,100,0.00,,,0.00,Wunderground v.1.15,2013-04-05 09:07:00,
2013-04-05 05:14:00,36.2,36.2,29.96,WNW,291,1.0,3.0,100,0.00,,,0.00,Wunderground v.1.15,2013-04-05 09:14:00,
2013-04-05 05:19:00,36.5,36.5,29.97,WNW,302,2.0,4.0,100,0.00,,,0.00,Wunderground v.1.15,2013-04-05 09:19:00,
2013-04-05 05:25:00,36.8,36.8,29.97,WNW,292,2.0,3.0,100,0.00,,,0.00,Wunderground v.1.15,2013-04-05 09:25:00,
2013-04-05 05:30:00,36.8,36.8,29.99,NW,326,2.0,5.0,100,0.00,,,0.00,Wunderground v.1.15,2013-04-05 09:30:00,
2013-04-05 05:36:00,36.9,36.6,29.99,NNW,344,3.0,7.0,99,0.00,,,0.00,Wunderground v.1.15,2013-04-05 09:36:00,
2013-04-05 05:42:00,36.9,35.3,29.99,NNW,346,3.0,10.0,94,0.00,,,0.00,Wunderground v.1.15,2013-04-05 09:42:00,
2013-04-05 05:47:00,36.9,34.2,30.00,NNW,333,3.0,10.0,90,0.00,,,0.00,Wunderground v.1.15,2013-04-05 09:47:00,
2013-04-05 05:53:00,36.8,33.3,30.00,NNE,23,3.0,3.0,87,0.00,,,0.00,Wunderground v.1.15,2013-04-05 09:53:00,
2013-04-05 05:58:00,36.6,32.2,30.00,NNE,17,2.0,6.0,84,0.00,,,0.00,Wunderground v.1.15,2013-04-05 09:58:00,
2013-04-05 06:04:00,36.5,32.1,30.01,NNE,13,2.0,3.0,84,0.00,,,0.00,Wunderground v.1.15,2013-04-05 10:04:00,
2013-04-05 06:10:00,36.3,30.7,30.01,North,4,2.0,11.0,80,0.00,,,0.00,Wunderground v.1.15,2013-04-05 10:10:00,
2013-04-05 06:15:00,36.2,30.3,30.02,NNW,328,3.0,11.0,79,0.00,,,0.00,Wunderground v.1.15,2013-04-05 10:15:00,
2013-04-05 06:20:00,36.2,30.6,30.02,NE,37,2.0,11.0,80,0.00,,,0.00,Wunderground v.1.15,2013-04-05 10:20:00,
2013-04-05 06:26:00,35.9,30.0,30.02,NNE,13,1.0,11.0,79,0.00,,,0.00,Wunderground v.1.15,2013-04-05 10:26:00,
2013-04-05 06:32:00,35.8,29.6,30.03,WNW,291,1.0,5.0,78,0.00,,,0.00,Wunderground v.1.15,2013-04-05 10:32:00,
2013-04-05 06:37:00,35.6,29.1,30.03,NNE,13,2.0,11.0,77,0.00,,,0.00,Wunderground v.1.15,2013-04-05 10:37:00,
2013-04-05 06:43:00,35.6,29.1,30.03,North,0,2.0,11.0,77,0.00,,,0.00,Wunderground v.1.15,2013-04-05 10:43:00,
2013-04-05 06:49:00,35.5,29.0,30.04,NNE,16,2.0,11.0,77,0.00,,,0.00,Wunderground v.1.15,2013-04-05 10:49:00,
2013-04-05 06:55:00,35.3,28.8,30.04,NNE,23,2.0,11.0,77,0.00,,,0.00,Wunderground v.1.15,2013-04-05 10:55:00,
2013-04-05 07:01:00,35.2,28.7,30.05,NNE,23,1.0,11.0,77,0.00,,,0.00,Wunderground v.1.15,2013-04-05 11:01:00,
2013-04-05 07:06:00,34.9,28.7,30.05,NNE,23,1.0,11.0,78,0.00,,,0.00,Wunderground v.1.15,2013-04-05 11:06:00,
2013-04-05 07:12:00,34.9,28.4,30.05,NNE,28,1.0,7.0,77,0.00,,,0.00,Wunderground v.1.15,2013-04-05 11:12:00,
2013-04-05 07:17:00,34.6,28.4,30.06,NNE,28,1.0,7.0,78,0.00,,,0.00,Wunderground v.1.15,2013-04-05 11:17:00,
2013-04-05 07:23:00,34.4,28.2,30.06,NNE,28,1.0,7.0,78,0.00,,,0.00,Wunderground v.1.15,2013-04-05 11:23:00,
2013-04-05 07:28:00,34.3,28.2,30.06,NNE,28,0.0,7.0,78,0.00,,,0.00,Wunderground v.1.15,2013-04-05 11:28:00,
2013-04-05 07:33:00,34.1,28.0,30.07,NNE,28,0.0,7.0,78,0.00,,,0.00,Wunderground v.1.15,2013-04-05 11:33:00,
2013-04-05 07:38:00,34.0,27.9,30.07,NNE,28,0.0,7.0,78,0.00,,,0.00,Wunderground v.1.15,2013-04-05 11:38:00,
2013-04-05 07:44:00,33.8,27.7,30.07,NNE,28,0.0,7.0,78,0.00,,,0.00,Wunderground v.1.15,2013-04-05 11:44:00,
2013-04-05 07:50:00,33.7,27.9,30.08,NNE,28,0.0,7.0,79,0.00,,,0.00,Wunderground v.1.15,2013-04-05 11:50:00,
2013-04-05 07:56:00,33.4,27.9,30.08,NNE,28,0.0,7.0,80,0.00,,,0.00,Wunderground v.1.15,2013-04-05 11:56:00,
2013-04-05 08:02:00,33.2,27.7,30.09,NNE,28,0.0,7.0,80,0.00,,,0.00,Wunderground v.1.15,2013-04-05 12:02:00,
2013-04-05 08:07:00,33.2,27.7,30.09,NNE,28,0.0,7.0,80,0.00,,,0.00,Wunderground v.1.15,2013-04-05 12:07:00,
2013-04-05 08:13:00,33.2,27.7,30.09,NNE,28,0.0,2.0,80,0.00,,,0.00,Wunderground v.1.15,2013-04-05 12:13:00,
2013-04-05 08:19:00,33.5,28.0,30.09,NNE,28,0.0,2.0,80,0.00,,,0.00,Wunderground v.1.15,2013-04-05 12:19:00,
2013-04-05 08:24:00,34.0,27.5,30.09,NNE,14,1.0,6.0,77,0.00,,,0.00,Wunderground v.1.15,2013-04-05 12:24:00,
2013-04-05 08:29:00,34.4,27.3,30.10,North,6,2.0,6.0,75,0.00,,,0.00,Wunderground v.1.15,2013-04-05 12:29:00,
2013-04-05 08:35:00,34.9,27.1,30.10,North,6,2.0,3.0,73,0.00,,,0.00,Wunderground v.1.15,2013-04-05 12:35:00,
2013-04-05 08:41:00,35.2,26.4,30.10,NW,325,3.0,3.0,70,0.00,,,0.00,Wunderground v.1.15,2013-04-05 12:41:00,
2013-04-05 08:48:00,35.6,26.8,30.10,North,0,2.0,5.0,70,0.00,,,0.00,Wunderground v.1.15,2013-04-05 12:48:00,
2013-04-05 08:53:00,35.9,26.0,30.10,North,7,2.0,2.0,67,0.00,,,0.00,Wunderground v.1.15,2013-04-05 12:53:00,
2013-04-05 08:58:00,36.5,26.2,30.10,North,0,2.0,4.0,66,0.00,,,0.00,Wunderground v.1.15,2013-04-05 12:58:00,
2013-04-05 09:04:00,37.0,25.6,30.10,North,0,2.0,2.0,63,0.00,,,0.00,Wunderground v.1.15,2013-04-05 13:04:00,
2013-04-05 09:09:00,37.3,25.8,30.10,NNE,13,2.0,8.0,63,0.00,,,0.00,Wunderground v.1.15,2013-04-05 13:09:00,
2013-04-05 09:15:00,37.6,25.0,30.11,ENE,58,2.0,8.0,60,0.00,,,0.00,Wunderground v.1.15,2013-04-05 13:15:00,
2013-04-05 09:20:00,37.6,25.0,30.11,North,0,3.0,8.0,60,0.00,,,0.00,Wunderground v.1.15,2013-04-05 13:20:00,
2013-04-05 09:26:00,37.8,24.7,30.11,ENE,66,4.0,9.0,59,0.00,,,0.00,Wunderground v.1.15,2013-04-05 13:26:00,
2013-04-05 09:32:00,38.0,23.3,30.12,NW,305,4.0,8.0,55,0.00,,,0.00,Wunderground v.1.15,2013-04-05 13:32:00,
2013-04-05 09:37:00,38.0,23.3,30.12,North,4,4.0,8.0,55,0.00,,,0.00,Wunderground v.1.15,2013-04-05 13:37:00,
2013-04-05 09:43:00,38.3,23.1,30.12,NNE,28,5.0,8.0,54,0.00,,,0.00,Wunderground v.1.15,2013-04-05 13:43:00,
2013-04-05 09:49:00,38.6,22.0,30.12,ENE,58,4.0,8.0,51,0.00,,,0.00,Wunderground v.1.15,2013-04-05 13:49:00,
2013-04-05 09:55:00,39.2,22.6,30.12,NNE,23,4.0,8.0,51,0.00,,,0.00,Wunderground v.1.15,2013-04-05 13:55:00,
2013-04-05 10:02:00,39.6,22.5,30.12,North,8,3.0,8.0,50,0.00,,,0.00,Wunderground v.1.15,2013-04-05 14:02:00,
2013-04-05 10:07:00,40.2,22.1,30.12,ENE,61,3.0,12.0,48,0.00,,,0.00,Wunderground v.1.15,2013-04-05 14:07:00,
2013-04-05 10:12:00,40.8,22.1,30.12,NE,56,2.0,12.0,47,0.00,,,0.00,Wunderground v.1.15,2013-04-05 14:12:00,
2013-04-05 10:17:00,41.2,21.4,30.12,ENE,62,2.0,12.0,45,0.00,,,0.00,Wunderground v.1.15,2013-04-05 14:17:00,
2013-04-05 10:23:00,41.1,20.8,30.12,NNW,336,4.0,12.0,44,0.00,,,0.00,Wunderground v.1.15,2013-04-05 14:23:00,
2013-04-05 10:28:00,40.8,20.5,30.12,NW,319,4.0,12.0,44,0.00,,,0.00,Wunderground v.1.15,2013-04-05 14:28:00,
2013-04-05 10:35:00,40.8,20.0,30.12,North,354,5.0,12.0,43,0.00,,,0.00,Wunderground v.1.15,2013-04-05 14:35:00,
2013-04-05 10:42:00,40.8,19.5,30.12,NNE,20,5.0,12.0,42,0.00,,,0.00,Wunderground v.1.15,2013-04-05 14:42:00,
2013-04-05 10:47:00,41.3,19.3,30.13,ENE,58,4.0,12.0,41,0.00,,,0.00,Wunderground v.1.15,2013-04-05 14:47:00,
2013-04-05 10:52:00,42.1,20.6,30.13,ENE,72,3.0,12.0,42,0.00,,,0.00,Wunderground v.1.15,2013-04-05 14:52:00,
2013-04-05 10:57:00,42.6,19.9,30.13,NE,34,3.0,12.0,40,0.00,,,0.00,Wunderground v.1.15,2013-04-05 14:57:00,
2013-04-05 11:03:00,41.9,18.7,30.14,WNW,302,4.0,12.0,39,0.00,,,0.00,Wunderground v.1.15,2013-04-05 15:03:00,
2013-04-05 11:08:00,41.3,16.9,30.14,North,0,6.0,12.0,37,0.00,,,0.00,Wunderground v.1.15,2013-04-05 15:08:00,
2013-04-05 11:14:00,42.1,19.5,30.14,NE,41,5.0,12.0,40,0.00,,,0.00,Wunderground v.1.15,2013-04-05 15:14:00,
2013-04-05 11:19:00,42.3,20.2,30.14,NNE,32,4.0,12.0,41,0.00,,,0.00,Wunderground v.1.15,2013-04-05 15:19:00,
2013-04-05 11:25:00,41.9,15.5,30.14,NW,323,4.0,12.0,34,0.00,,,0.00,Wunderground v.1.15,2013-04-05 15:25:00,
2013-04-05 11:30:00,42.1,17.7,30.13,WNW,296,5.0,12.0,37,0.00,,,0.00,Wunderground v.1.15,2013-04-05 15:30:00,
2013-04-05 11:35:00,41.6,15.3,30.13,WNW,284,7.0,12.0,34,0.00,,,0.00,Wunderground v.1.15,2013-04-05 15:35:00,
2013-04-05 11:42:00,42.9,16.4,30.13,SW,232,5.0,10.0,34,0.00,,,0.00,Wunderground v.1.15,2013-04-05 15:42:00,
2013-04-05 11:49:00,42.6,15.5,30.13,West,278,6.0,12.0,33,0.00,,,0.00,Wunderground v.1.15,2013-04-05 15:49:00,
2013-04-05 11:54:00,43.1,12.9,30.13,North,352,7.0,12.0,29,0.00,,,0.00,Wunderground v.1.15,2013-04-05 15:54:00,
2013-04-05 11:59:00,42.5,21.5,30.13,NNW,332,6.0,12.0,43,0.00,,,0.00,Wunderground v.1.15,2013-04-05 15:59:00,
2013-04-05 12:05:00,41.5,21.7,30.14,SW,219,8.0,16.0,45,0.00,,,0.00,Wunderground v.1.15,2013-04-05 16:05:00,
2013-04-05 12:11:00,41.2,22.0,30.14,West,274,9.0,11.0,46,0.00,,,0.00,Wunderground v.1.15,2013-04-05 16:11:00,
2013-04-05 12:17:00,41.3,21.0,30.14,WNW,299,8.0,16.0,44,0.00,,,0.00,Wunderground v.1.15,2013-04-05 16:17:00,
2013-04-05 12:22:00,41.6,21.8,30.14,WNW,296,8.0,16.0,45,0.00,,,0.00,Wunderground v.1.15,2013-04-05 16:22:00,
2013-04-05 12:27:00,41.3,20.5,30.14,NW,306,7.0,16.0,43,0.00,,,0.00,Wunderground v.1.15,2013-04-05 16:27:00,
2013-04-05 12:33:00,42.1,22.8,30.14,SW,230,7.0,16.0,46,0.00,,,0.00,Wunderground v.1.15,2013-04-05 16:33:00,
2013-04-05 12:38:00,41.3,21.5,30.14,WNW,285,8.0,16.0,45,0.00,,,0.00,Wunderground v.1.15,2013-04-05 16:38:00,
2013-04-05 12:44:00,41.3,22.1,30.14,SW,229,8.0,16.0,46,0.00,,,0.00,Wunderground v.1.15,2013-04-05 16:44:00,
2013-04-05 12:49:00,41.2,22.0,30.15,WSW,254,7.0,16.0,46,0.00,,,0.00,Wunderground v.1.15,2013-04-05 16:49:00,
2013-04-05 12:55:00,41.2,19.8,30.15,WSW,241,7.0,16.0,42,0.00,,,0.00,Wunderground v.1.15,2013-04-05 16:55:00,
2013-04-05 13:00:00,41.1,20.3,30.15,WSW,244,8.0,8.0,43,0.00,,,0.00,Wunderground v.1.15,2013-04-05 17:00:00,
2013-04-05 13:05:00,40.6,19.8,30.15,WSW,244,9.0,18.0,43,0.00,,,0.00,Wunderground v.1.15,2013-04-05 17:05:00,
2013-04-05 13:11:00,39.9,20.8,30.15,West,274,10.0,18.0,46,0.00,,,0.00,Wunderground v.1.15,2013-04-05 17:11:00,
2013-04-05 13:17:00,40.3,19.0,30.15,West,261,10.0,18.0,42,0.00,,,0.00,Wunderground v.1.15,2013-04-05 17:17:00,
2013-04-05 13:24:00,40.5,19.2,30.15,WSW,240,9.0,18.0,42,0.00,,,0.00,Wunderground v.1.15,2013-04-05 17:24:00,
2013-04-05 13:30:00,39.9,17.5,30.15,WNW,288,10.0,10.0,40,0.00,,,0.00,Wunderground v.1.15,2013-04-05 17:30:00,
2013-04-05 13:36:00,40.1,19.9,30.15,West,264,10.0,18.0,44,0.00,,,0.00,Wunderground v.1.15,2013-04-05 17:36:00,
2013-04-05 13:41:00,39.8,19.6,30.15,NW,304,10.0,18.0,44,0.00,,,0.00,Wunderground v.1.15,2013-04-05 17:41:00,
2013-04-05 13:46:00,40.2,19.5,30.15,West,275,10.0,18.0,43,0.00,,,0.00,Wunderground v.1.15,2013-04-05 17:46:00,
2013-04-05 13:52:00,40.1,21.0,30.15,SW,230,9.0,18.0,46,0.00,,,0.00,Wunderground v.1.15,2013-04-05 17:52:00,
2013-04-05 13:57:00,39.6,21.5,30.15,WSW,251,9.0,18.0,48,0.00,,,0.00,Wunderground v.1.15,2013-04-05 17:57:00,
2013-04-05 14:02:00,39.5,21.9,30.15,NNW,342,10.0,18.0,49,0.00,,,0.00,Wunderground v.1.15,2013-04-05 18:02:00,
2013-04-05 14:09:00,39.1,23.4,30.15,West,281,10.0,19.0,53,0.00,,,0.00,Wunderground v.1.15,2013-04-05 18:09:00,
2013-04-05 14:14:00,38.8,24.4,30.15,NW,305,10.0,19.0,56,0.00,,,0.00,Wunderground v.1.15,2013-04-05 18:14:00,
2013-04-05 14:19:00,38.8,24.0,30.15,WSW,256,10.0,19.0,55,0.00,,,0.00,Wunderground v.1.15,2013-04-05 18:19:00,
2013-04-05 14:24:00,39.5,25.5,30.15,West,274,9.0,19.0,57,0.00,,,0.00,Wunderground v.1.15,2013-04-05 18:24:00,
2013-04-05 14:30:00,39.1,26.0,30.14,West,260,8.0,8.0,59,0.00,,,0.00,Wunderground v.1.15,2013-04-05 18:30:00,
2013-04-05 14:35:00,39.5,25.5,30.14,WSW,243,8.0,19.0,57,0.00,,,0.00,Wunderground v.1.15,2013-04-05 18:35:00,
2013-04-05 14:40:00,39.9,26.3,30.14,WSW,247,8.0,8.0,58,0.00,,,0.00,Wunderground v.1.15,2013-04-05 18:40:00,
2013-04-05 14:46:00,39.3,23.6,30.14,NW,304,8.0,19.0,53,0.00,,,0.00,Wunderground v.1.15,2013-04-05 18:46:00,
2013-04-05 14:51:00,39.2,24.4,30.14,WNW,294,9.0,19.0,55,0.00,,,0.00,Wunderground v.1.15,2013-04-05 18:51:00,
2013-04-05 14:56:00,39.2,23.5,30.14,West,270,8.0,19.0,53,0.00,,,0.00,Wunderground v.1.15,2013-04-05 18:56:00,
2013-04-05 15:01:00,39.5,25.1,30.14,WSW,257,7.0,19.0,56,0.00,,,0.00,Wunderground v.1.15,2013-04-05 19:01:00,
2013-04-05 15:07:00,39.2,24.8,30.14,WNW,284,8.0,19.0,56,0.00,,,0.00,Wunderground v.1.15,2013-04-05 19:07:00,
2013-04-05 15:12:00,39.6,24.7,30.14,West,274,8.0,17.0,55,0.00,,,0.00,Wunderground v.1.15,2013-04-05 19:12:00,
2013-04-05 15:19:00,39.5,24.2,30.14,WSW,243,8.0,17.0,54,0.00,,,0.00,Wunderground v.1.15,2013-04-05 19:19:00,
2013-04-05 15:24:00,39.3,24.9,30.14,WSW,254,8.0,17.0,56,0.00,,,0.00,Wunderground v.1.15,2013-04-05 19:24:00,
2013-04-05 15:29:00,38.6,22.0,30.14,WNW,302,9.0,17.0,51,0.00,,,0.00,Wunderground v.1.15,2013-04-05 19:29:00,
2013-04-05 15:34:00,38.6,22.5,30.13,West,271,8.0,17.0,52,0.00,,,0.00,Wunderground v.1.15,2013-04-05 19:34:00,
2013-04-05 15:40:00,39.1,26.0,30.13,West,272,8.0,8.0,59,0.00,,,0.00,Wunderground v.1.15,2013-04-05 19:40:00,
2013-04-05 15:46:00,39.1,24.3,30.13,North,353,8.0,17.0,55,0.00,,,0.00,Wunderground v.1.15,2013-04-05 19:46:00,
2013-04-05 15:51:00,38.6,25.1,30.13,WNW,288,8.0,17.0,58,0.00,,,0.00,Wunderground v.1.15,2013-04-05 19:51:00,
2013-04-05 15:57:00,38.8,24.4,30.13,West,264,8.0,17.0,56,0.00,,,0.00,Wunderground v.1.15,2013-04-05 19:57:00,
2013-04-05 16:02:00,38.6,25.5,30.13,WSW,240,8.0,17.0,59,0.00,,,0.00,Wunderground v.1.15,2013-04-05 20:02:00,
2013-04-05 16:09:00,38.2,23.4,30.13,WNW,284,9.0,17.0,55,0.00,,,0.00,Wunderground v.1.15,2013-04-05 20:09:00,
2013-04-05 16:14:00,38.0,23.3,30.13,WSW,254,8.0,16.0,55,0.00,,,0.00,Wunderground v.1.15,2013-04-05 20:14:00,
2013-04-05 16:19:00,38.3,24.0,30.13,WSW,253,8.0,16.0,56,0.00,,,0.00,Wunderground v.1.15,2013-04-05 20:19:00,
2013-04-05 16:25:00,38.3,25.6,30.13,West,263,8.0,16.0,60,0.00,,,0.00,Wunderground v.1.15,2013-04-05 20:25:00,
2013-04-05 16:31:00,37.9,24.0,30.13,West,263,9.0,16.0,57,0.00,,,0.00,Wunderground v.1.15,2013-04-05 20:31:00,
2013-04-05 16:36:00,38.2,25.5,30.13,WSW,244,8.0,16.0,60,0.00,,,0.00,Wunderground v.1.15,2013-04-05 20:36:00,
2013-04-05 16:42:00,37.9,24.0,30.13,WSW,257,8.0,16.0,57,0.00,,,0.00,Wunderground v.1.15,2013-04-05 20:42:00,
2013-04-05 16:47:00,38.0,25.3,30.12,West,261,8.0,16.0,60,0.00,,,0.00,Wunderground v.1.15,2013-04-05 20:47:00,
2013-04-05 16:54:00,38.5,25.8,30.12,WSW,257,8.0,16.0,60,0.00,,,0.00,Wunderground v.1.15,2013-04-05 20:54:00,
2013-04-05 16:59:00,38.9,24.9,30.12,WNW,296,7.0,16.0,57,0.00,,,0.00,Wunderground v.1.15,2013-04-05 20:59:00,
2013-04-05 17:05:00,39.1,26.0,30.12,SW,230,7.0,16.0,59,0.00,,,0.00,Wunderground v.1.15,2013-04-05 21:05:00,
2013-04-05 17:11:00,38.5,25.0,30.12,WNW,294,7.0,16.0,58,0.00,,,0.00,Wunderground v.1.15,2013-04-05 21:11:00,
2013-04-05 17:16:00,37.5,26.4,30.12,West,281,8.0,16.0,64,0.00,,,0.00,Wunderground v.1.15,2013-04-05 21:16:00,
2013-04-05 17:21:00,38.0,26.1,30.12,West,271,8.0,16.0,62,0.00,,,0.00,Wunderground v.1.15,2013-04-05 21:21:00,
2013-04-05 17:27:00,37.3,25.8,30.12,WSW,248,8.0,16.0,63,0.00,,,0.00,Wunderground v.1.15,2013-04-05 21:27:00,
2013-04-05 17:32:00,37.8,26.3,30.12,West,270,9.0,16.0,63,0.00,,,0.00,Wunderground v.1.15,2013-04-05 21:32:00,
2013-04-05 17:39:00,37.3,25.8,30.12,WSW,258,8.0,16.0,63,0.00,,,0.00,Wunderground v.1.15,2013-04-05 21:39:00,
2013-04-05 17:44:00,37.6,26.5,30.13,WSW,258,8.0,16.0,64,0.00,,,0.00,Wunderground v.1.15,2013-04-05 21:44:00,
2013-04-05 17:50:00,37.8,25.5,30.13,West,271,7.0,16.0,61,0.00,,,0.00,Wunderground v.1.15,2013-04-05 21:50:00,
2013-04-05 17:55:00,37.3,25.5,30.13,West,278,7.0,16.0,62,0.00,,,0.00,Wunderground v.1.15,2013-04-05 21:55:00,
2013-04-05 18:01:00,37.6,26.5,30.13,WSW,247,7.0,16.0,64,0.00,,,0.00,Wunderground v.1.15,2013-04-05 22:01:00,
2013-04-05 18:06:00,37.8,25.9,30.13,NNW,342,6.0,16.0,62,0.00,,,0.00,Wunderground v.1.15,2013-04-05 22:06:00,
2013-04-05 18:12:00,36.9,27.0,30.13,WSW,258,8.0,16.0,67,0.00,,,0.00,Wunderground v.1.15,2013-04-05 22:12:00,
2013-04-05 18:17:00,36.3,26.7,30.14,West,264,8.0,16.0,68,0.00,,,0.00,Wunderground v.1.15,2013-04-05 22:17:00,
2013-04-05 18:24:00,36.2,27.0,30.14,WSW,250,8.0,16.0,69,0.00,,,0.00,Wunderground v.1.15,2013-04-05 22:24:00,
2013-04-05 18:29:00,35.9,26.4,30.14,West,275,7.0,16.0,68,0.00,,,0.00,Wunderground v.1.15,2013-04-05 22:29:00,
2013-04-05 18:35:00,35.9,27.1,30.14,West,280,7.0,16.0,70,0.00,,,0.00,Wunderground v.1.15,2013-04-05 22:35:00,
2013-04-05 18:41:00,35.6,27.8,30.14,WNW,284,8.0,16.0,73,0.00,,,0.00,Wunderground v.1.15,2013-04-05 22:41:00,
2013-04-05 18:47:00,35.9,27.7,30.15,West,272,8.0,16.0,72,0.00,,,0.00,Wunderground v.1.15,2013-04-05 22:47:00,
2013-04-05 18:54:00,36.2,28.4,30.15,SW,232,7.0,16.0,73,0.00,,,0.00,Wunderground v.1.15,2013-04-05 22:54:00,
2013-04-05 18:59:00,36.5,28.0,30.15,West,264,6.0,16.0,71,0.00,,,0.00,Wunderground v.1.15,2013-04-05 22:59:00,
2013-04-05 19:04:00,36.3,26.4,30.15,NW,311,6.0,16.0,67,0.00,,,0.00,Wunderground v.1.15,2013-04-05 23:04:00,
2013-04-05 19:09:00,36.2,28.0,30.15,NW,308,7.0,16.0,72,0.00,,,0.00,Wunderground v.1.15,2013-04-05 23:09:00,
2013-04-05 19:14:00,36.2,28.4,30.15,NW,326,7.0,16.0,73,0.00,,,0.00,Wunderground v.1.15,2013-04-05 23:14:00,
2013-04-05 19:20:00,35.8,28.6,30.15,NNW,342,8.0,16.0,75,0.00,,,0.00,Wunderground v.1.15,2013-04-05 23:20:00,
2013-04-05 19:25:00,35.8,28.3,30.15,WNW,288,7.0,16.0,74,0.00,,,0.00,Wunderground v.1.15,2013-04-05 23:25:00,
2013-04-05 19:31:00,35.8,28.0,30.15,West,272,5.0,16.0,73,0.00,,,0.00,Wunderground v.1.15,2013-04-05 23:31:00,
2013-04-05 19:36:00,35.2,27.4,30.15,West,271,4.0,16.0,73,0.00,,,0.00,Wunderground v.1.15,2013-04-05 23:36:00,
2013-04-05 19:42:00,34.7,27.9,30.15,NW,308,6.0,16.0,76,0.00,,,0.00,Wunderground v.1.15,2013-04-05 23:42:00,
2013-04-05 19:47:00,34.6,28.8,30.15,West,267,6.0,16.0,79,0.00,,,0.00,Wunderground v.1.15,2013-04-05 23:47:00,
2013-04-05 19:52:00,34.4,28.9,30.15,WNW,287,6.0,16.0,80,0.00,,,0.00,Wunderground v.1.15,2013-04-05 23:52:00,
2013-04-05 19:58:00,34.1,29.5,30.15,WSW,250,5.0,16.0,83,0.00,,,0.00,Wunderground v.1.15,2013-04-05 23:58:00,
2013-04-05 20:04:00,34.0,29.4,30.15,WNW,285,4.0,16.0,83,0.00,,,0.00,Wunderground v.1.15,2013-04-06 00:04:00,
2013-04-05 20:10:00,33.8,29.5,30.15,WNW,285,2.0,16.0,84,0.00,,,0.00,Wunderground v.1.15,2013-04-06 00:10:00,
2013-04-05 20:15:00,33.8,29.5,30.15,WNW,285,1.0,14.0,84,0.00,,,0.00,Wunderground v.1.15,2013-04-06 00:15:00,
2013-04-05 20:21:00,33.7,29.4,30.15,WNW,285,1.0,14.0,84,0.00,,,0.00,Wunderground v.1.15,2013-04-06 00:21:00,
2013-04-05 20:27:00,33.5,29.8,30.15,West,280,1.0,14.0,86,0.00,,,0.00,Wunderground v.1.15,2013-04-06 00:27:00,
2013-04-05 20:32:00,33.4,29.4,30.15,West,280,1.0,14.0,85,0.00,,,0.00,Wunderground v.1.15,2013-04-06 00:32:00,
2013-04-05 20:38:00,33.1,29.4,30.15,West,280,0.0,14.0,86,0.00,,,0.00,Wunderground v.1.15,2013-04-06 00:38:00,
2013-04-05 20:44:00,33.1,29.4,30.15,West,280,1.0,14.0,86,0.00,,,0.00,Wunderground v.1.15,2013-04-06 00:44:00,
2013-04-05 20:49:00,32.9,29.7,30.16,West,280,1.0,14.0,88,0.00,,,0.00,Wunderground v.1.15,2013-04-06 00:49:00,
2013-04-05 20:55:00,32.9,29.7,30.16,West,280,0.0,14.0,88,0.00,,,0.00,Wunderground v.1.15,2013-04-06 00:55:00,
2013-04-05 21:00:00,32.9,29.7,30.16,West,280,0.0,14.0,88,0.00,,,0.00,Wunderground v.1.15,2013-04-06 01:00:00,
2013-04-05 21:06:00,32.8,29.4,30.16,West,280,0.0,14.0,87,0.00,,,0.00,Wunderground v.1.15,2013-04-06 01:06:00,
2013-04-05 21:11:00,32.5,29.1,30.16,West,280,0.0,5.0,87,0.00,,,0.00,Wunderground v.1.15,2013-04-06 01:11:00,
2013-04-05 21:16:00,32.5,29.9,30.16,West,280,0.0,5.0,90,0.00,,,0.00,Wunderground v.1.15,2013-04-06 01:16:00,
2013-04-05 21:22:00,32.5,30.2,30.16,West,280,0.0,5.0,91,0.00,,,0.00,Wunderground v.1.15,2013-04-06 01:22:00,
2013-04-05 21:28:00,32.4,30.1,30.16,West,280,0.0,5.0,91,0.00,,,0.00,Wunderground v.1.15,2013-04-06 01:28:00,
2013-04-05 21:33:00,32.2,29.9,30.16,West,280,0.0,5.0,91,0.00,,,0.00,Wunderground v.1.15,2013-04-06 01:33:00,
2013-04-05 21:38:00,32.2,30.1,30.16,West,280,0.0,5.0,92,0.00,,,0.00,Wunderground v.1.15,2013-04-06 01:38:00,
2013-04-05 21:44:00,32.2,30.1,30.16,West,280,0.0,5.0,92,0.00,,,0.00,Wunderground v.1.15,2013-04-06 01:44:00,
2013-04-05 21:49:00,32.2,30.1,30.16,West,280,0.0,5.0,92,0.00,,,0.00,Wunderground v.1.15,2013-04-06 01:49:00,
2013-04-05 21:55:00,32.1,30.0,30.16,West,280,0.0,5.0,92,0.00,,,0.00,Wunderground v.1.15,2013-04-06 01:55:00,
2013-04-05 22:01:00,32.1,30.8,30.16,West,280,0.0,5.0,95,0.00,,,0.00,Wunderground v.1.15,2013-04-06 02:01:00,
2013-04-05 22:06:00,32.1,31.1,30.16,West,280,0.0,5.0,96,0.00,,,0.00,Wunderground v.1.15,2013-04-06 02:06:00,
2013-04-05 22:12:00,32.2,31.4,30.16,West,280,0.0,0.0,97,0.00,,,0.00,Wunderground v.1.15,2013-04-06 02:12:00,
2013-04-05 22:17:00,32.2,31.4,30.16,West,280,0.0,0.0,97,0.00,,,0.00,Wunderground v.1.15,2013-04-06 02:17:00,
2013-04-05 22:22:00,32.2,31.7,30.16,West,280,0.0,0.0,98,0.00,,,0.00,Wunderground v.1.15,2013-04-06 02:22:00,
2013-04-05 22:27:00,32.1,31.9,30.16,West,280,0.0,0.0,99,0.00,,,0.00,Wunderground v.1.15,2013-04-06 02:27:00,
2013-04-05 22:33:00,32.2,31.7,30.15,West,280,0.0,0.0,98,0.00,,,0.00,Wunderground v.1.15,2013-04-06 02:33:00,
2013-04-05 22:39:00,32.4,31.9,30.15,West,280,0.0,0.0,98,0.00,,,0.00,Wunderground v.1.15,2013-04-06 02:39:00,
2013-04-05 22:44:00,32.4,31.6,30.15,West,280,0.0,0.0,97,0.00,,,0.00,Wunderground v.1.15,2013-04-06 02:44:00,
2013-04-05 22:49:00,32.5,31.7,30.14,West,280,0.0,0.0,97,0.00,,,0.00,Wunderground v.1.15,2013-04-06 02:49:00,
2013-04-05 22:55:00,32.5,31.5,30.14,West,280,0.0,0.0,96,0.00,,,0.00,Wunderground v.1.15,2013-04-06 02:55:00,
2013-04-05 23:00:00,32.5,31.5,30.14,West,280,0.0,0.0,96,0.00,,,0.00,Wunderground v.1.15,2013-04-06 03:00:00,
2013-04-05 23:06:00,32.5,31.2,30.14,West,280,0.0,0.0,95,0.00,,,0.00,Wunderground v.1.15,2013-04-06 03:06:00,
2013-04-05 23:12:00,32.5,31.5,30.14,West,280,0.0,0.0,96,0.00,,,0.00,Wunderground v.1.15,2013-04-06 03:12:00,
2013-04-05 23:17:00,32.7,31.4,30.14,West,280,0.0,0.0,95,0.00,,,0.00,Wunderground v.1.15,2013-04-06 03:17:00,
2013-04-05 23:22:00,32.7,31.4,30.14,West,280,0.0,0.0,95,0.00,,,0.00,Wunderground v.1.15,2013-04-06 03:22:00,
2013-04-05 23:28:00,32.8,31.3,30.14,West,280,0.0,0.0,94,0.00,,,0.00,Wunderground v.1.15,2013-04-06 03:28:00,
2013-04-05 23:34:00,32.9,31.4,30.13,West,280,0.0,0.0,94,0.00,,,0.00,Wunderground v.1.15,2013-04-06 03:34:00,
2013-04-05 23:39:00,33.1,31.3,30.13,West,280,0.0,0.0,93,0.00,,,0.00,Wunderground v.1.15,2013-04-06 03:39:00,
2013-04-05 23:45:00,33.1,31.0,30.13,West,280,0.0,0.0,92,0.00,,,0.00,Wunderground v.1.15,2013-04-06 03:45:00,
2013-04-05 23:51:00,33.1,31.0,30.13,West,280,0.0,0.0,92,0.00,,,0.00,Wunderground v.1.15,2013-04-06 03:51:00,
2013-04-05 23:57:00,33.2,31.1,30.13,West,280,0.0,0.0,92,0.00,,,0.00,Wunderground v.1.15,2013-04-06 03:57:00,